createdAt,value
2018-01-13T00:01:29.294Z,25.70
2018-01-13T00:03:56.866Z,21.77
2018-01-13T00:06:24.504Z,28.67
2018-01-13T00:08:52.089Z,26.60
2018-01-13T00:11:19.683Z,24.80
2018-01-13T00:13:47.290Z,23.93
2018-01-13T00:16:14.890Z,26.83
2018-01-13T00:18:42.887Z,24.63
2018-01-13T00:21:10.473Z,21.90
2018-01-13T00:23:38.093Z,21.73
2018-01-13T00:26:05.747Z,31.50
2018-01-13T00:28:33.324Z,24.67
2018-01-13T00:31:00.918Z,58.07
2018-01-13T00:33:28.490Z,73.80
2018-01-13T00:35:56.088Z,31.97
2018-01-13T00:38:23.653Z,33.40
2018-01-13T00:40:51.241Z,29.70
2018-01-13T00:43:18.808Z,46.93
2018-01-13T00:45:46.409Z,22.03
2018-01-13T00:48:13.978Z,31.17
2018-01-13T00:50:41.570Z,30.20
2018-01-13T00:53:09.132Z,29.80
2018-01-13T00:55:36.723Z,29.90
2018-01-13T00:58:04.293Z,31.57
2018-01-13T01:00:32.653Z,31.73
2018-01-13T01:03:00.221Z,33.33
2018-01-13T01:05:27.821Z,41.50
2018-01-13T01:07:55.390Z,39.73
2018-01-13T01:10:22.982Z,37.47
2018-01-13T01:12:50.554Z,39.37
2018-01-13T01:15:18.146Z,47.43
2018-01-13T01:17:45.712Z,39.60
2018-01-13T01:20:13.305Z,42.80
2018-01-13T01:22:40.904Z,39.47
2018-01-13T01:25:09.236Z,44.77
2018-01-13T01:27:36.823Z,42.90
2018-01-13T01:30:04.430Z,31.53
2018-01-13T01:32:32.023Z,39.83
2018-01-13T01:34:59.598Z,48.90
2018-01-13T01:37:27.196Z,38.20
2018-01-13T01:39:55.528Z,42.60
2018-01-13T01:42:23.128Z,41.30
2018-01-13T01:44:50.697Z,32.27
2018-01-13T01:47:18.481Z,40.40
2018-01-13T01:49:46.064Z,41.17
2018-01-13T01:52:13.660Z,37.17
2018-01-13T01:54:41.230Z,32.90
2018-01-13T01:57:09.587Z,38.70
2018-01-13T01:59:37.148Z,38.93
2018-01-13T02:02:04.742Z,35.40
2018-01-13T02:04:32.303Z,34.67
2018-01-13T02:06:59.887Z,41.77
2018-01-13T02:09:27.461Z,33.70
2018-01-13T02:11:55.061Z,30.87
2018-01-13T02:14:23.399Z,30.60
2018-01-13T02:16:51.005Z,37.23
2018-01-13T02:19:18.580Z,33.40
2018-01-13T02:21:46.177Z,33.10
2018-01-13T02:24:15.251Z,40.10
2018-01-13T02:26:42.845Z,36.37
2018-01-13T02:29:10.423Z,35.30
2018-01-13T02:31:40.428Z,30.83
2018-01-13T02:34:08.765Z,32.20
2018-01-13T02:36:36.369Z,37.40
2018-01-13T02:39:03.936Z,34.80
2018-01-13T02:41:31.505Z,38.73
2018-01-13T02:43:59.098Z,29.27
2018-01-13T02:46:26.670Z,37.03
2018-01-13T02:48:54.274Z,38.60
2018-01-13T02:51:21.841Z,33.63
2018-01-13T02:53:49.622Z,42.73
2018-01-13T02:56:17.227Z,31.10
2018-01-13T02:58:44.817Z,43.97
2018-01-13T03:01:12.386Z,30.60
2018-01-13T03:03:39.981Z,31.63
2018-01-13T03:06:07.554Z,41.60
2018-01-13T03:08:35.899Z,36.90
2018-01-13T03:11:03.477Z,34.13
2018-01-13T03:13:31.068Z,40.90
2018-01-13T03:15:58.640Z,43.53
2018-01-13T03:18:26.999Z,44.40
2018-01-13T03:20:54.576Z,37.50
2018-01-13T03:23:22.169Z,48.47
2018-01-13T03:25:49.733Z,43.03
2018-01-13T03:28:17.324Z,35.47
2018-01-13T03:30:44.895Z,44.97
2018-01-13T03:33:12.488Z,42.27
2018-01-13T03:35:40.068Z,37.63
2018-01-13T03:38:07.658Z,42.33
2018-01-13T03:40:35.224Z,55.73
2018-01-13T03:43:02.818Z,46.50
2018-01-13T03:45:31.150Z,39.60
2018-01-13T03:47:58.740Z,44.43
2018-01-13T03:50:27.076Z,53.00
2018-01-13T03:52:54.665Z,41.33
2018-01-13T03:55:22.237Z,53.20
2018-01-13T03:57:50.569Z,56.37
2018-01-13T04:00:18.153Z,48.63
2018-01-13T04:02:45.709Z,51.97
2018-01-13T04:05:13.301Z,49.20
2018-01-13T04:07:41.637Z,40.50
2018-01-13T04:10:09.225Z,42.90
2018-01-13T04:12:37.560Z,39.07
2018-01-13T04:15:05.202Z,47.70
2018-01-13T04:17:32.748Z,49.20
2018-01-13T04:20:00.344Z,49.80
2018-01-13T04:22:27.921Z,41.87
2018-01-13T04:24:55.516Z,42.40
2018-01-13T04:27:23.082Z,48.57
2018-01-13T04:29:50.672Z,37.70
2018-01-13T04:32:18.243Z,44.20
2018-01-13T04:34:45.837Z,44.13
2018-01-13T04:37:14.167Z,41.23
2018-01-13T04:39:41.761Z,35.03
2018-01-13T04:42:09.352Z,42.10
2018-01-13T04:44:36.945Z,45.33
2018-01-13T04:47:04.513Z,39.93
2018-01-13T04:49:32.100Z,50.10
2018-01-13T04:52:00.439Z,43.73
2018-01-13T04:54:28.025Z,34.03
2018-01-13T04:56:55.589Z,35.60
2018-01-13T04:59:23.181Z,29.00
2018-01-13T05:01:50.750Z,39.13
2018-01-13T05:04:18.342Z,36.27
2018-01-13T05:06:45.911Z,38.13
2018-01-13T05:09:13.505Z,33.10
2018-01-13T05:11:41.836Z,32.73
2018-01-13T05:14:09.428Z,31.83
2018-01-13T05:16:37.789Z,32.10
2018-01-13T05:19:05.693Z,33.27
2018-01-13T05:21:34.049Z,41.87
2018-01-13T05:24:02.417Z,44.13
2018-01-13T05:26:30.062Z,35.97
2018-01-13T05:28:57.631Z,32.40
2018-01-13T05:31:25.223Z,36.63
2018-01-13T05:33:53.557Z,33.03
2018-01-13T05:36:21.157Z,33.00
2018-01-13T05:38:49.489Z,33.20
2018-01-13T05:41:17.081Z,43.17
2018-01-13T05:43:44.651Z,32.00
2018-01-13T05:46:12.309Z,33.87
2018-01-13T05:48:39.879Z,33.97
2018-01-13T05:51:07.473Z,35.77
2018-01-13T05:53:35.048Z,42.37
2018-01-13T05:56:02.636Z,32.47
2018-01-13T05:58:30.976Z,38.17
2018-01-13T06:00:58.562Z,29.83
2018-01-13T06:03:26.129Z,30.73
2018-01-13T06:05:53.726Z,33.40
2018-01-13T06:08:21.289Z,37.63
2018-01-13T06:10:48.890Z,34.37
2018-01-13T06:13:17.867Z,33.67
2018-01-13T06:15:45.691Z,38.23
2018-01-13T06:18:13.267Z,37.40
2018-01-13T06:20:40.869Z,39.40
2018-01-13T06:23:08.448Z,34.20
2018-01-13T06:25:36.013Z,35.40
2018-01-13T06:28:03.602Z,41.73
2018-01-13T06:30:31.178Z,38.87
2018-01-13T06:32:59.675Z,43.30
2018-01-13T06:35:27.325Z,44.20
2018-01-13T06:37:54.914Z,66.80
2018-01-13T06:40:22.491Z,48.20
2018-01-13T06:42:51.250Z,42.90
2018-01-13T06:45:18.817Z,39.47
2018-01-13T06:47:46.407Z,40.20
2018-01-13T06:50:13.984Z,38.07
2018-01-13T06:52:41.809Z,40.10
2018-01-13T06:55:10.152Z,36.43
2018-01-13T06:57:37.740Z,34.07
2018-01-13T07:00:05.307Z,35.17
2018-01-13T07:02:32.902Z,33.50
2018-01-13T07:05:00.466Z,34.93
2018-01-13T07:07:28.054Z,34.70
2018-01-13T07:09:55.617Z,40.90
2018-01-13T07:12:23.237Z,38.97
2018-01-13T07:14:50.806Z,34.63
2018-01-13T07:17:18.389Z,40.70
2018-01-13T07:19:45.960Z,35.27
2018-01-13T07:22:15.085Z,37.43
2018-01-13T07:24:44.022Z,30.13
2018-01-13T07:27:11.667Z,29.53
2018-01-13T07:29:39.378Z,28.90
2018-01-13T07:32:07.049Z,26.90
2018-01-13T07:34:34.931Z,24.07
2018-01-13T07:37:03.094Z,26.90
2018-01-13T07:39:32.005Z,21.20
2018-01-13T07:42:00.195Z,22.33
2018-01-13T07:44:30.704Z,26.83
2018-01-13T07:46:59.973Z,23.90
2018-01-13T07:49:28.976Z,24.27
2018-01-13T07:51:57.250Z,22.27
2018-01-13T07:54:25.328Z,24.70
2018-01-13T07:56:53.574Z,28.87
2018-01-13T07:59:23.322Z,26.07
2018-01-13T08:01:53.568Z,27.97
2018-01-13T08:04:22.562Z,26.37
2018-01-13T08:06:51.042Z,29.07
2018-01-13T08:09:19.239Z,26.60
2018-01-13T08:11:48.470Z,23.20
2018-01-13T08:14:18.148Z,19.97
2018-01-13T08:16:45.845Z,25.57
2018-01-13T08:19:13.957Z,22.13
2018-01-13T08:21:43.064Z,20.17
2018-01-13T08:24:11.362Z,20.10
2018-01-13T08:26:42.554Z,24.23
2018-01-13T08:29:11.688Z,22.77
2018-01-13T08:31:39.637Z,25.40
2018-01-13T08:34:07.576Z,26.00
2018-01-13T08:36:35.145Z,22.10
2018-01-13T08:39:03.503Z,22.87
2018-01-13T08:41:31.073Z,20.50
2018-01-13T08:43:58.666Z,19.93
2018-01-13T08:46:26.239Z,21.10
2018-01-13T08:48:53.826Z,19.17
2018-01-13T08:51:21.399Z,22.00
2018-01-13T08:53:48.990Z,23.30
2018-01-13T08:56:16.561Z,19.83
2018-01-13T08:58:44.141Z,20.07
2018-01-13T09:01:11.700Z,18.40
2018-01-13T09:03:39.292Z,21.10
2018-01-13T09:06:06.861Z,20.80
2018-01-13T09:08:34.457Z,21.03
2018-01-13T09:11:02.030Z,22.50
2018-01-13T09:13:29.795Z,22.23
2018-01-13T09:15:57.390Z,19.70
2018-01-13T09:18:24.965Z,21.70
2018-01-13T09:20:52.569Z,18.87
2018-01-13T09:23:20.142Z,18.57
2018-01-13T09:25:47.728Z,19.03
2018-01-13T09:28:15.293Z,17.37
2018-01-13T09:30:42.882Z,17.87
2018-01-13T09:33:11.214Z,14.37
2018-01-13T09:35:38.853Z,19.20
2018-01-13T09:38:06.420Z,16.13
2018-01-13T09:40:34.031Z,18.83
2018-01-13T09:43:01.596Z,14.77
2018-01-13T09:45:29.222Z,17.97
2018-01-13T09:47:56.789Z,25.10
2018-01-13T09:50:24.374Z,14.60
2018-01-13T09:52:52.710Z,15.80
2018-01-13T09:55:20.444Z,16.87
2018-01-13T09:57:48.019Z,16.50
2018-01-13T10:00:15.613Z,17.27
2018-01-13T10:02:43.178Z,16.77
2018-01-13T10:05:12.233Z,13.80
2018-01-13T10:07:39.802Z,16.40
2018-01-13T10:10:07.398Z,15.70
2018-01-13T10:12:35.733Z,16.43
2018-01-13T10:15:03.456Z,25.90
2018-01-13T10:17:31.026Z,15.27
2018-01-13T10:19:58.618Z,15.60
2018-01-13T10:22:26.546Z,13.63
2018-01-13T10:24:54.256Z,17.13
2018-01-13T10:27:21.878Z,15.83
2018-01-13T10:29:49.447Z,20.00
2018-01-13T10:32:17.038Z,15.60
2018-01-13T10:34:45.211Z,19.50
2018-01-13T10:37:12.853Z,21.03
2018-01-13T10:39:40.424Z,20.30
2018-01-13T10:42:08.014Z,20.90
2018-01-13T10:44:36.353Z,23.23
2018-01-13T10:47:03.949Z,18.13
2018-01-13T10:49:32.282Z,20.53
2018-01-13T10:52:00.113Z,19.77
2018-01-13T10:54:27.706Z,19.40
2018-01-13T10:56:55.298Z,18.67
2018-01-13T10:59:23.638Z,16.50
2018-01-13T11:01:51.285Z,32.63
2018-01-13T11:04:18.862Z,24.90
2018-01-13T11:06:46.453Z,22.17
2018-01-13T11:09:14.017Z,18.73
2018-01-13T11:11:43.052Z,20.60
2018-01-13T11:14:10.608Z,16.13
2018-01-13T11:16:38.194Z,25.10
2018-01-13T11:19:05.766Z,23.63
2018-01-13T11:21:33.352Z,23.33
2018-01-13T11:24:01.691Z,22.23
2018-01-13T11:26:29.281Z,25.40
2018-01-13T11:28:57.622Z,28.70
2018-01-13T11:31:25.216Z,21.07
2018-01-13T11:33:53.549Z,21.13
2018-01-13T11:36:21.138Z,30.83
2018-01-13T11:38:48.718Z,20.87
2018-01-13T11:41:17.082Z,32.10
2018-01-13T11:43:44.664Z,27.83
2018-01-13T11:46:12.256Z,22.20
2018-01-13T11:48:39.820Z,21.23
2018-01-13T11:51:07.389Z,31.30
2018-01-13T11:53:34.984Z,27.83
2018-01-13T11:56:03.308Z,24.03
2018-01-13T11:58:30.898Z,24.17
2018-01-13T12:00:58.506Z,23.77
2018-01-13T12:03:26.874Z,17.77
2018-01-13T12:05:55.220Z,25.43
2018-01-13T12:08:22.807Z,23.93
2018-01-13T12:10:52.774Z,30.00
2018-01-13T12:13:20.417Z,45.30
2018-01-13T12:15:47.992Z,21.63
2018-01-13T12:18:15.590Z,24.80
2018-01-13T12:20:43.157Z,25.60
2018-01-13T12:23:11.519Z,27.33
2018-01-13T12:25:39.095Z,27.27
2018-01-13T12:28:07.453Z,20.37
2018-01-13T12:30:35.017Z,27.90
2018-01-13T12:33:02.682Z,25.30
2018-01-13T12:35:31.116Z,23.00
2018-01-13T12:37:58.713Z,25.17
2018-01-13T12:40:26.281Z,30.40
2018-01-13T12:42:53.881Z,19.13
2018-01-13T12:45:21.452Z,27.67
2018-01-13T12:47:49.041Z,23.40
2018-01-13T12:50:16.608Z,25.97
2018-01-13T12:52:44.197Z,24.90
2018-01-13T12:55:11.768Z,24.67
2018-01-13T12:57:39.380Z,24.37
2018-01-13T13:00:06.993Z,26.67
2018-01-13T13:02:34.568Z,27.17
2018-01-13T13:05:02.158Z,25.20
2018-01-13T13:07:29.724Z,25.13
2018-01-13T13:09:58.085Z,23.23
2018-01-13T13:12:25.653Z,36.37
2018-01-13T13:14:53.259Z,26.93
2018-01-13T13:17:20.822Z,23.73
2018-01-13T13:19:48.413Z,22.77
2018-01-13T13:22:16.102Z,20.53
2018-01-13T13:24:44.468Z,23.10
2018-01-13T13:27:12.046Z,31.23
2018-01-13T13:29:39.637Z,26.23
2018-01-13T13:32:07.758Z,22.80
2018-01-13T13:34:35.374Z,31.37
2018-01-13T13:37:02.941Z,25.13
2018-01-13T13:39:30.529Z,25.90
2018-01-13T13:41:58.097Z,22.97
2018-01-13T13:44:25.702Z,24.80
2018-01-13T13:46:53.274Z,23.30
2018-01-13T13:49:20.861Z,23.00
2018-01-13T13:51:48.439Z,25.50
2018-01-13T13:54:16.025Z,23.27
2018-01-13T13:56:43.589Z,23.80
2018-01-13T13:59:11.186Z,26.70
2018-01-13T14:01:38.816Z,22.37
2018-01-13T14:04:07.204Z,28.83
2018-01-13T14:06:34.743Z,24.83
2018-01-13T14:09:02.423Z,22.83
2018-01-13T14:11:30.717Z,29.60
2018-01-13T14:13:58.860Z,24.10
2018-01-13T14:16:27.239Z,28.37
2018-01-13T14:18:54.994Z,26.33
2018-01-13T14:21:22.709Z,25.67
2018-01-13T14:23:50.960Z,29.47
2018-01-13T14:26:19.369Z,22.60
2018-01-13T14:28:46.942Z,25.27
2018-01-13T14:31:15.302Z,23.93
2018-01-13T14:33:42.869Z,26.37
2018-01-13T14:36:10.457Z,21.53
2018-01-13T14:38:38.025Z,27.60
2018-01-13T14:41:05.622Z,20.27
2018-01-13T14:43:33.194Z,26.77
2018-01-13T14:46:00.785Z,30.03
2018-01-13T14:48:28.353Z,26.53
2018-01-13T14:50:55.968Z,23.93
2018-01-13T14:53:24.302Z,29.00
2018-01-13T14:55:51.895Z,29.87
2018-01-13T14:58:19.469Z,27.10
2018-01-13T15:00:47.060Z,35.90
2018-01-13T15:03:14.633Z,27.63
2018-01-13T15:05:42.306Z,23.50
2018-01-13T15:08:09.874Z,25.13
2018-01-13T15:10:37.461Z,24.30
2018-01-13T15:13:05.032Z,23.57
2018-01-13T15:15:32.633Z,23.80
2018-01-13T15:18:00.209Z,21.80
2018-01-13T15:20:27.802Z,26.70
2018-01-13T15:22:55.561Z,35.17
2018-01-13T15:25:23.157Z,42.23
2018-01-13T15:27:50.748Z,30.83
2018-01-13T15:30:18.317Z,28.97
2018-01-13T15:32:45.906Z,36.00
2018-01-13T15:35:13.488Z,23.37
2018-01-13T15:37:41.103Z,29.60
2018-01-13T15:40:08.665Z,31.03
2018-01-13T15:42:36.260Z,24.43
2018-01-13T15:45:03.829Z,24.07
2018-01-13T15:47:32.184Z,30.50
2018-01-13T15:49:59.749Z,27.43
2018-01-13T15:52:27.344Z,24.13
2018-01-13T15:54:54.917Z,27.20
2018-01-13T15:57:22.509Z,26.23
2018-01-13T15:59:50.081Z,22.80
2018-01-13T16:02:17.711Z,22.43
2018-01-13T16:04:45.923Z,23.27
2018-01-13T16:07:14.402Z,26.50
2018-01-13T16:09:42.697Z,26.13
2018-01-13T16:12:11.152Z,30.77
2018-01-13T16:14:38.717Z,31.97
2018-01-13T16:17:06.378Z,25.93
2018-01-13T16:19:34.178Z,29.00
2018-01-13T16:22:01.769Z,27.10
2018-01-13T16:24:31.710Z,28.73
2018-01-13T16:26:59.400Z,32.87
2018-01-13T16:29:27.052Z,27.03
2018-01-13T16:31:55.447Z,27.93
2018-01-13T16:34:23.020Z,26.57
2018-01-13T16:36:50.646Z,29.27
2018-01-13T16:39:19.070Z,25.60
2018-01-13T16:41:46.700Z,42.03
2018-01-13T16:44:14.269Z,30.90
2018-01-13T16:46:41.864Z,29.17
2018-01-13T16:49:09.434Z,33.27
2018-01-13T16:51:37.005Z,29.57
2018-01-13T16:54:04.606Z,31.87
2018-01-13T16:56:32.175Z,32.53
2018-01-13T16:58:59.764Z,28.90
2018-01-13T17:01:27.330Z,28.70
2018-01-13T17:03:54.929Z,25.60
2018-01-13T17:06:22.512Z,26.07
2018-01-13T17:08:50.096Z,30.13
2018-01-13T17:11:17.671Z,38.43
2018-01-13T17:13:45.257Z,31.13
2018-01-13T17:16:12.890Z,35.53
2018-01-13T17:18:40.480Z,29.57
2018-01-13T17:21:08.813Z,38.77
2018-01-13T17:23:36.414Z,28.93
2018-01-13T17:26:04.790Z,38.23
2018-01-13T17:28:33.146Z,36.57
2018-01-13T17:31:00.719Z,36.33
2018-01-13T17:33:29.077Z,35.20
2018-01-13T17:35:57.622Z,27.93
2018-01-13T17:38:25.208Z,29.07
2018-01-13T17:40:52.778Z,33.80
2018-01-13T17:43:20.407Z,31.70
2018-01-13T17:45:48.016Z,34.27
2018-01-13T17:48:15.614Z,34.87
2018-01-13T17:50:43.881Z,50.67
2018-01-13T17:53:11.512Z,45.67
2018-01-13T17:55:39.844Z,35.67
2018-01-13T17:58:07.523Z,28.43
2018-01-13T18:00:36.077Z,25.90
2018-01-13T18:03:03.701Z,29.60
2018-01-13T18:05:31.287Z,32.80
2018-01-13T18:07:58.853Z,26.20
2018-01-13T18:10:26.443Z,25.23
2018-01-13T18:12:54.010Z,27.60
2018-01-13T18:15:21.601Z,26.73
2018-01-13T18:17:49.988Z,27.43
2018-01-13T18:20:17.576Z,30.93
2018-01-13T18:22:45.140Z,28.07
2018-01-13T18:25:12.733Z,30.57
2018-01-13T18:27:40.384Z,31.53
2018-01-13T18:30:07.987Z,29.27
2018-01-13T18:32:35.558Z,28.80
2018-01-13T18:35:03.142Z,32.50
2018-01-13T18:37:30.714Z,21.07
2018-01-13T18:39:58.317Z,23.33
2018-01-13T18:42:25.881Z,22.77
2018-01-13T18:44:53.522Z,23.33
2018-01-13T18:47:21.138Z,34.87
2018-01-13T18:49:48.729Z,28.53
2018-01-13T18:52:16.344Z,26.60
2018-01-13T18:54:43.972Z,27.77
2018-01-13T18:57:12.310Z,26.97
2018-01-13T18:59:39.948Z,29.40
2018-01-13T19:02:07.514Z,31.27
2018-01-13T19:04:35.138Z,29.00
2018-01-13T19:07:02.705Z,26.03
2018-01-13T19:09:30.298Z,24.17
2018-01-13T19:11:57.938Z,25.70
2018-01-13T19:14:25.604Z,29.40
2018-01-13T19:16:53.172Z,25.23
2018-01-13T19:19:20.772Z,24.57
2018-01-13T19:21:49.105Z,26.90
2018-01-13T19:24:16.705Z,25.03
2018-01-13T19:26:44.343Z,23.30
2018-01-13T19:29:11.911Z,28.27
2018-01-13T19:31:39.543Z,46.17
2018-01-13T19:34:07.154Z,25.40
2018-01-13T19:36:34.749Z,42.53
2018-01-13T19:39:02.356Z,27.70
2018-01-13T19:41:29.992Z,42.17
2018-01-13T19:43:57.559Z,25.27
2018-01-13T19:46:25.174Z,24.57
2018-01-13T19:48:52.748Z,26.30
2018-01-13T19:51:20.391Z,26.23
2018-01-13T19:53:47.998Z,28.20
2018-01-13T19:56:15.672Z,27.30
2018-01-13T19:58:43.283Z,87.33
2018-01-13T20:01:10.881Z,42.70
2018-01-13T20:03:38.486Z,27.33
2018-01-13T20:06:06.130Z,24.33
2018-01-13T20:08:34.510Z,28.17
2018-01-13T20:11:02.904Z,31.00
2018-01-13T20:13:30.524Z,28.00
2018-01-13T20:15:58.163Z,32.30
2018-01-13T20:18:25.780Z,26.00
2018-01-13T20:20:53.437Z,26.13
2018-01-13T20:23:21.815Z,28.07
2018-01-13T20:25:49.452Z,28.27
2018-01-13T20:28:17.058Z,29.70
2018-01-13T20:30:44.697Z,28.50
2018-01-13T20:33:13.137Z,26.80
2018-01-13T20:35:41.109Z,28.73
2018-01-13T20:38:08.820Z,28.03
2018-01-13T20:40:36.438Z,30.00
2018-01-13T20:43:04.103Z,25.57
2018-01-13T20:45:31.719Z,30.07
2018-01-13T20:47:59.314Z,27.03
2018-01-13T20:50:26.940Z,24.40
2018-01-13T20:52:54.578Z,25.67
2018-01-13T20:55:22.201Z,27.20
2018-01-13T20:57:49.841Z,26.17
2018-01-13T21:00:17.540Z,25.10
2018-01-13T21:02:45.949Z,26.73
2018-01-13T21:05:13.560Z,25.30
2018-01-13T21:07:41.204Z,26.87
2018-01-13T21:10:08.912Z,23.43
2018-01-13T21:12:37.324Z,26.20
2018-01-13T21:15:04.896Z,28.00
2018-01-13T21:17:32.542Z,26.97
2018-01-13T21:20:00.125Z,30.63
2018-01-13T21:22:29.277Z,25.90
2018-01-13T21:24:56.884Z,20.50
2018-01-13T21:27:24.485Z,27.93
2018-01-13T21:29:52.108Z,25.80
2018-01-13T21:32:19.749Z,29.40
2018-01-13T21:34:47.309Z,29.07
2018-01-13T21:37:14.947Z,25.63
2018-01-13T21:39:42.571Z,24.67
2018-01-13T21:42:10.214Z,34.00
2018-01-13T21:44:37.837Z,24.87
2018-01-13T21:47:05.401Z,22.07
2018-01-13T21:49:33.029Z,28.30
2018-01-13T21:52:00.651Z,29.73
2018-01-13T21:54:28.288Z,30.60
2018-01-13T21:56:55.900Z,29.13
2018-01-13T21:59:23.541Z,26.73
2018-01-13T22:01:51.155Z,22.70
2018-01-13T22:04:18.805Z,23.97
2018-01-13T22:06:46.424Z,29.87
2018-01-13T22:09:14.050Z,31.83
2018-01-13T22:11:41.669Z,30.73
2018-01-13T22:14:09.507Z,27.83
2018-01-13T22:16:37.131Z,31.50
2018-01-13T22:19:04.722Z,21.73
2018-01-13T22:21:32.333Z,25.07
2018-01-13T22:23:59.988Z,31.27
2018-01-13T22:26:27.592Z,27.60
2018-01-13T22:28:55.186Z,26.87
2018-01-13T22:31:23.573Z,37.00
2018-01-13T22:33:51.217Z,31.47
2018-01-13T22:36:19.606Z,28.37
2018-01-13T22:38:48.013Z,28.13
2018-01-13T22:41:15.579Z,26.63
2018-01-13T22:43:43.220Z,39.50
2018-01-13T22:46:10.841Z,28.33
2018-01-13T22:48:38.509Z,26.80
2018-01-13T22:51:06.889Z,30.70
2018-01-13T22:53:35.296Z,30.23
2018-01-13T22:56:03.777Z,33.37
2018-01-13T22:58:31.405Z,32.77
2018-01-13T23:00:59.731Z,34.20
2018-01-13T23:03:27.376Z,31.10
2018-01-13T23:05:54.945Z,32.90
2018-01-13T23:08:22.551Z,32.93
2018-01-13T23:10:50.182Z,28.23
2018-01-13T23:13:17.749Z,42.03
2018-01-13T23:15:45.394Z,31.70
2018-01-13T23:18:12.957Z,36.60
2018-01-13T23:20:40.587Z,28.20
2018-01-13T23:23:08.190Z,25.50
2018-01-13T23:25:35.777Z,28.73
2018-01-13T23:28:03.394Z,37.27
2018-01-13T23:30:31.026Z,25.23
2018-01-13T23:32:58.594Z,29.43
2018-01-13T23:35:26.223Z,40.87
2018-01-13T23:37:53.794Z,37.43
2018-01-13T23:40:21.428Z,32.70
2018-01-13T23:42:48.998Z,56.10
2018-01-13T23:45:17.356Z,36.00
2018-01-13T23:47:44.963Z,31.53
2018-01-13T23:50:12.545Z,39.63
2018-01-13T23:52:40.115Z,39.90
2018-01-13T23:55:07.756Z,35.83
2018-01-13T23:57:35.379Z,30.27
